Terminal Aerodrome Forecast
Issued by NWS Amarillo, TX

Home | Current Version | Previous Version | Text Only | Print | Product List | Glossary On
Versions: 1 2 3 4 5 6 7 8 9 10 11 12 13 14 15
000
FTUS44 KAMA 011100
TAFAMA
TAF
KAMA 011140Z 0112/0212 19012KT P6SM FEW300
     FM011600 23017G26KT P6SM SCT110 SCT300
     FM020200 23012KT P6SM FEW300
     FM020900 33009KT P6SM FEW300=

USA.gov is the U.S. government's official web portal to all federal, state and local government web resources and services.